Flight Track Log - Related Links

Times and Time Zones

All times are in EDT time to prevent confusion due to time zone crossing. See the N581PS flight status page for this flight to view local times or setup timezone preferences in your user account.

Time Position Orientation Groundspeed Altitude Reporting Facility
EDT Latitude Longitude Course Direction KTS MPH feet Rate Location/Type
Tue 11:05:10 AM 27.9269 -79.6486 298° West 172 198 10,000  Level Miami Center
Tue 11:06:10 AM 27.9492 -79.6961 294° West 172 198 10,100 50 Climbing Miami Center
Tue 11:07:10 AM 27.9689 -79.7461 296° West 177 204 10,100  Level Miami Center
Tue 11:08:10 AM 27.9889 -79.7936 298° West 177 204 10,100  Level Miami Center
Tue 11:09:10 AM 28.0128 -79.8436 294° West 177 204 10,100  Level Miami Center
Tue 11:10:10 AM 28.0328 -79.8936 294° West 177 204 10,100  Level Miami Center
Tue 11:11:10 AM 28.0525 -79.9436 294° West 177 204 10,100  Level Miami Center
Tue 11:12:10 AM 28.0722 -79.9933 298° West 177 204 10,100  Level Miami Center
Tue 11:13:10 AM 28.0983 -80.0483 296° West 177 204 10,100  Level Miami Center
Tue 11:14:10 AM 28.1200 -80.0983 293° West 177 204 10,100 -50 Level Miami Center
Tue 11:15:10 AM 28.1397 -80.1508 296° West 177 204 10,000 -50 Descending Miami Center
Tue 11:16:10 AM 28.1617 -80.2008 296° West 177 204 10,000  Level Miami Center
Tue 11:17:10 AM 28.1833 -80.2508 297° West 177 204 10,000  Level Miami Center
Tue 11:20:03 AM 28.2500 -80.4000 291° West 177 204 10,000  Level Orlando TRACON
Tue 11:21:09 AM 28.2667 -80.4500 291° West 178 205 10,000  Level Orlando TRACON
Tue 11:22:03 AM 28.2833 -80.5000 307° West 178 205 10,000  Level Orlando TRACON
Tue 11:23:03 AM 28.3167 -80.5500 291° West 176 203 10,000  Level Orlando TRACON
Tue 11:24:03 AM 28.3333 -80.6000 291° West 174 200 10,000  Level Orlando TRACON
Tue 11:25:03 AM 28.3500 -80.6500 300° West 176 203 10,000  Level Orlando TRACON
Tue 11:25:57 AM 28.3667 -80.6833 300° West 176 203 10,000  Level Orlando TRACON
Tue 11:27:03 AM 28.4000 -80.7500 291° West 176 203 10,000  Level Orlando TRACON
Tue 11:28:04 AM 28.4167 -80.8000 291° West 176 203 10,000  Level Orlando TRACON
Tue 11:29:09 AM 28.4333 -80.8500 291° West 179 206 10,000  Level Orlando TRACON
Tue 11:30:04 AM 28.4500 -80.9000 291° West 175 201 10,000  Level Orlando TRACON
Tue 11:31:10 AM 28.4667 -80.9500 291° West 172 198 10,000  Level Orlando TRACON
Tue 11:32:04 AM 28.4833 -81.0000 270° West 172 198 10,000  Level Orlando TRACON
Tue 11:33:04 AM 28.4833 -81.0500 291° West 170 196 10,000  Level Orlando TRACON
Tue 11:34:04 AM 28.5000 -81.1000 291° West 170 196 10,000  Level Orlando TRACON
Tue 11:35:04 AM 28.5167 -81.1500 270° West 169 194 10,000  Level Orlando TRACON
Tue 11:36:10 AM 28.5167 -81.2167 270° West 164 189 10,000  Level Orlando TRACON
Tue 11:37:10 AM 28.5167 -81.2667 270° West 168 193 10,000  Level Orlando TRACON
Tue 11:38:10 AM 28.5167 -81.3167 270° West 170 196 10,000 -105 Level Orlando TRACON
Tue 11:39:04 AM 28.5167 -81.3667 270° West 179 206 9,800 -571 Descending Orlando TRACON
Tue 11:40:16 AM 28.5167 -81.4500 291° West 195 224 8,800 -857 Descending Orlando TRACON
Tue 11:41:10 AM 28.5333 -81.5000 300° West 202 232 8,000 -950 Descending Orlando TRACON
Tue 11:42:16 AM 28.5667 -81.5667 291° West 204 235 6,900 -1,000 Descending Orlando TRACON
Tue 11:43:10 AM 28.5833 -81.6167 325° Northwest 199 229 6,000 -1,000 Descending Orlando TRACON
Tue 11:50:32 AM 28.8167 -81.8000 310° West  Level FlightAware Approximate
Tue 11:51:32 AM 28.8472 -81.8413 130° Southeast  Level Estimated
Tue 11:52:32 AM 28.8167 -81.8000 310° West  Level FlightAware Approximate
Tue 11:53:32 AM 28.8472 -81.8413 130° Southeast  Level Estimated
Tue 11:54:32 AM 28.8167 -81.8000 310° West  Level FlightAware Approximate
Tue 11:55:32 AM 28.8472 -81.8413 130° Southeast  Level Estimated
Tue 11:56:32 AM 28.8167 -81.8000 310° West  Level FlightAware Approximate
Tue 11:57:32 AM 28.8472 -81.8413 130° Southeast  Level Estimated
Tue 11:58:32 AM 28.8167 -81.8000 310° West  Level FlightAware Approximate
Tue 11:59:32 AM 28.8472 -81.8413 130° Southeast  Level Estimated
Tue 12:00:32 PM 28.8167 -81.8000 310° West  Level FlightAware Approximate
Tue 12:01:32 PM 28.8472 -81.8413 130° Southeast  Level Estimated
Tue 12:02:32 PM 28.8167 -81.8000 310° West  Level FlightAware Approximate
Tue 12:03:32 PM 28.8472 -81.8413 130° Southeast  Level Estimated
Tue 12:04:32 PM 28.8167 -81.8000 130° Southeast  Level FlightAware Approximate

Login

Don't have an account? Register now (free) for customized features, flight alerts, and more!